sensor_id;sensor_type;location;lat;lon;timestamp;temperature;humidity
13998;DHT22;7074;51.508;7.018;2022-10-16T00:00:44;15.70;99.90
13998;DHT22;7074;51.508;7.018;2022-10-16T00:03:11;15.80;99.90
13998;DHT22;7074;51.508;7.018;2022-10-16T00:05:40;15.80;99.90
13998;DHT22;7074;51.508;7.018;2022-10-16T00:08:08;15.80;99.90
13998;DHT22;7074;51.508;7.018;2022-10-16T00:10:36;15.80;99.90
13998;DHT22;7074;51.508;7.018;2022-10-16T00:13:03;15.80;99.90
13998;DHT22;7074;51.508;7.018;2022-10-16T00:15:33;15.80;99.90
13998;DHT22;7074;51.508;7.018;2022-10-16T00:18:04;15.80;99.90
13998;DHT22;7074;51.508;7.018;2022-10-16T00:20:34;15.80;99.90
13998;DHT22;7074;51.508;7.018;2022-10-16T00:23:03;15.80;99.90
13998;DHT22;7074;51.508;7.018;2022-10-16T00:25:31;15.80;99.90
13998;DHT22;7074;51.508;7.018;2022-10-16T00:27:59;15.70;99.90
13998;DHT22;7074;51.508;7.018;2022-10-16T00:30:27;15.70;99.90
13998;DHT22;7074;51.508;7.018;2022-10-16T00:32:55;15.70;99.90
13998;DHT22;7074;51.508;7.018;2022-10-16T00:35:24;15.70;99.90
13998;DHT22;7074;51.508;7.018;2022-10-16T00:37:52;15.70;99.90
13998;DHT22;7074;51.508;7.018;2022-10-16T00:40:20;15.60;99.90
13998;DHT22;7074;51.508;7.018;2022-10-16T00:42:47;15.70;99.90
13998;DHT22;7074;51.508;7.018;2022-10-16T00:45:14;15.60;99.90
13998;DHT22;7074;51.508;7.018;2022-10-16T00:47:43;15.60;99.90
13998;DHT22;7074;51.508;7.018;2022-10-16T00:50:18;15.60;99.90
13998;DHT22;7074;51.508;7.018;2022-10-16T00:52:51;15.60;99.90
13998;DHT22;7074;51.508;7.018;2022-10-16T00:55:19;15.60;99.90
13998;DHT22;7074;51.508;7.018;2022-10-16T00:57:47;15.60;99.90
13998;DHT22;7074;51.508;7.018;2022-10-16T01:00:18;15.60;99.90
13998;DHT22;7074;51.508;7.018;2022-10-16T01:02:52;15.60;99.90
13998;DHT22;7074;51.508;7.018;2022-10-16T01:05:20;15.70;99.90
13998;DHT22;7074;51.508;7.018;2022-10-16T01:07:55;15.60;99.90
13998;DHT22;7074;51.508;7.018;2022-10-16T01:10:27;15.60;99.90
13998;DHT22;7074;51.508;7.018;2022-10-16T01:13:01;15.60;99.90
13998;DHT22;7074;51.508;7.018;2022-10-16T01:15:34;15.60;99.90
13998;DHT22;7074;51.508;7.018;2022-10-16T01:18:08;15.70;99.90
13998;DHT22;7074;51.508;7.018;2022-10-16T01:20:39;15.60;99.90
13998;DHT22;7074;51.508;7.018;2022-10-16T01:28:22;15.50;99.90
13998;DHT22;7074;51.508;7.018;2022-10-16T01:30:55;15.50;99.90
13998;DHT22;7074;51.508;7.018;2022-10-16T01:33:29;15.50;99.90
13998;DHT22;7074;51.508;7.018;2022-10-16T01:36:02;15.50;99.90
13998;DHT22;7074;51.508;7.018;2022-10-16T01:38:33;15.50;99.90
13998;DHT22;7074;51.508;7.018;2022-10-16T01:41:11;15.50;99.90
13998;DHT22;7074;51.508;7.018;2022-10-16T01:43:45;15.50;99.90
13998;DHT22;7074;51.508;7.018;2022-10-16T01:46:14;15.50;99.90
13998;DHT22;7074;51.508;7.018;2022-10-16T01:48:43;15.40;99.90
13998;DHT22;7074;51.508;7.018;2022-10-16T01:51:12;15.40;99.90
13998;DHT22;7074;51.508;7.018;2022-10-16T01:53:43;15.30;99.90
13998;DHT22;7074;51.508;7.018;2022-10-16T01:56:14;15.40;99.90
13998;DHT22;7074;51.508;7.018;2022-10-16T01:58:47;15.40;99.90
13998;DHT22;7074;51.508;7.018;2022-10-16T02:01:17;15.40;99.90
13998;DHT22;7074;51.508;7.018;2022-10-16T02:03:47;15.40;99.90
13998;DHT22;7074;51.508;7.018;2022-10-16T02:06:16;15.40;99.90
13998;DHT22;7074;51.508;7.018;2022-10-16T02:08:44;15.40;99.90
13998;DHT22;7074;51.508;7.018;2022-10-16T02:11:11;15.40;99.90
13998;DHT22;7074;51.508;7.018;2022-10-16T02:13:41;15.40;99.90
13998;DHT22;7074;51.508;7.018;2022-10-16T02:16:13;15.40;99.90
13998;DHT22;7074;51.508;7.018;2022-10-16T02:18:42;15.40;99.90
13998;DHT22;7074;51.508;7.018;2022-10-16T02:21:16;15.40;99.90
13998;DHT22;7074;51.508;7.018;2022-10-16T02:23:49;15.40;99.90
13998;DHT22;7074;51.508;7.018;2022-10-16T02:26:25;15.50;99.90
13998;DHT22;7074;51.508;7.018;2022-10-16T02:28:58;15.40;99.90
13998;DHT22;7074;51.508;7.018;2022-10-16T02:31:31;15.50;99.90
13998;DHT22;7074;51.508;7.018;2022-10-16T02:34:00;15.50;99.90
13998;DHT22;7074;51.508;7.018;2022-10-16T02:36:29;15.50;99.90
13998;DHT22;7074;51.508;7.018;2022-10-16T02:38:56;15.50;99.90
13998;DHT22;7074;51.508;7.018;2022-10-16T02:41:25;15.50;99.90
13998;DHT22;7074;51.508;7.018;2022-10-16T02:43:52;15.40;99.90
13998;DHT22;7074;51.508;7.018;2022-10-16T02:46:21;15.40;99.90
13998;DHT22;7074;51.508;7.018;2022-10-16T02:48:49;15.50;99.90
13998;DHT22;7074;51.508;7.018;2022-10-16T02:51:17;15.40;99.90
13998;DHT22;7074;51.508;7.018;2022-10-16T02:53:44;15.40;99.90
13998;DHT22;7074;51.508;7.018;2022-10-16T02:56:12;15.40;99.90
13998;DHT22;7074;51.508;7.018;2022-10-16T02:58:39;15.50;99.90
13998;DHT22;7074;51.508;7.018;2022-10-16T03:01:06;15.50;99.90
13998;DHT22;7074;51.508;7.018;2022-10-16T03:03:33;15.50;99.90
13998;DHT22;7074;51.508;7.018;2022-10-16T03:06:02;15.50;99.90
13998;DHT22;7074;51.508;7.018;2022-10-16T03:08:30;15.50;99.90
13998;DHT22;7074;51.508;7.018;2022-10-16T03:10:57;15.50;99.90
13998;DHT22;7074;51.508;7.018;2022-10-16T03:13:27;15.50;99.90
13998;DHT22;7074;51.508;7.018;2022-10-16T03:15:54;15.50;99.90
13998;DHT22;7074;51.508;7.018;2022-10-16T03:18:21;15.50;99.90
13998;DHT22;7074;51.508;7.018;2022-10-16T03:20:49;15.50;99.90
13998;DHT22;7074;51.508;7.018;2022-10-16T03:23:17;15.50;99.90
13998;DHT22;7074;51.508;7.018;2022-10-16T03:25:45;15.50;99.90
13998;DHT22;7074;51.508;7.018;2022-10-16T03:28:12;15.50;99.90
13998;DHT22;7074;51.508;7.018;2022-10-16T03:30:39;15.50;99.90
13998;DHT22;7074;51.508;7.018;2022-10-16T03:33:06;15.60;99.90
13998;DHT22;7074;51.508;7.018;2022-10-16T03:35:33;15.60;99.90
13998;DHT22;7074;51.508;7.018;2022-10-16T03:38:01;15.60;99.90
13998;DHT22;7074;51.508;7.018;2022-10-16T03:40:30;15.50;99.90
13998;DHT22;7074;51.508;7.018;2022-10-16T03:42:58;15.50;99.90
13998;DHT22;7074;51.508;7.018;2022-10-16T03:45:25;15.50;99.90
13998;DHT22;7074;51.508;7.018;2022-10-16T03:47:53;15.50;99.90
13998;DHT22;7074;51.508;7.018;2022-10-16T03:50:20;15.50;99.90
13998;DHT22;7074;51.508;7.018;2022-10-16T03:52:47;15.50;99.90
13998;DHT22;7074;51.508;7.018;2022-10-16T03:55:15;15.50;99.90
13998;DHT22;7074;51.508;7.018;2022-10-16T03:57:44;15.50;99.90
13998;DHT22;7074;51.508;7.018;2022-10-16T04:00:12;15.50;99.90
13998;DHT22;7074;51.508;7.018;2022-10-16T04:02:40;15.50;99.90
13998;DHT22;7074;51.508;7.018;2022-10-16T04:05:07;15.50;99.90
13998;DHT22;7074;51.508;7.018;2022-10-16T04:07:35;15.50;99.90
13998;DHT22;7074;51.508;7.018;2022-10-16T04:10:02;15.50;99.90
13998;DHT22;7074;51.508;7.018;2022-10-16T04:12:30;15.50;99.90
13998;DHT22;7074;51.508;7.018;2022-10-16T04:14:59;15.50;99.90
13998;DHT22;7074;51.508;7.018;2022-10-16T04:17:26;15.40;99.90
13998;DHT22;7074;51.508;7.018;2022-10-16T04:19:53;15.40;99.90
13998;DHT22;7074;51.508;7.018;2022-10-16T04:22:20;15.40;99.90
13998;DHT22;7074;51.508;7.018;2022-10-16T04:24:48;15.40;99.90
13998;DHT22;7074;51.508;7.018;2022-10-16T04:27:15;15.50;99.90
13998;DHT22;7074;51.508;7.018;2022-10-16T04:29:42;15.40;99.90
13998;DHT22;7074;51.508;7.018;2022-10-16T04:32:11;15.40;99.90
13998;DHT22;7074;51.508;7.018;2022-10-16T04:34:39;15.40;99.90
13998;DHT22;7074;51.508;7.018;2022-10-16T04:37:06;15.40;99.90
13998;DHT22;7074;51.508;7.018;2022-10-16T04:39:34;15.40;99.90
13998;DHT22;7074;51.508;7.018;2022-10-16T04:42:01;15.40;99.90
13998;DHT22;7074;51.508;7.018;2022-10-16T04:44:28;15.40;99.90
13998;DHT22;7074;51.508;7.018;2022-10-16T04:46:55;15.40;99.90
13998;DHT22;7074;51.508;7.018;2022-10-16T04:49:24;15.40;99.90
13998;DHT22;7074;51.508;7.018;2022-10-16T04:51:51;15.30;99.90
13998;DHT22;7074;51.508;7.018;2022-10-16T04:54:18;15.30;99.90
13998;DHT22;7074;51.508;7.018;2022-10-16T04:56:45;15.40;99.90
13998;DHT22;7074;51.508;7.018;2022-10-16T04:59:14;15.40;99.90
13998;DHT22;7074;51.508;7.018;2022-10-16T05:01:41;15.40;99.90
13998;DHT22;7074;51.508;7.018;2022-10-16T05:04:09;15.40;99.90
13998;DHT22;7074;51.508;7.018;2022-10-16T05:06:38;15.40;99.90
13998;DHT22;7074;51.508;7.018;2022-10-16T05:09:05;15.40;99.90
13998;DHT22;7074;51.508;7.018;2022-10-16T05:11:33;15.40;99.90
13998;DHT22;7074;51.508;7.018;2022-10-16T05:14:00;15.40;99.90
13998;DHT22;7074;51.508;7.018;2022-10-16T05:16:27;15.40;99.90
13998;DHT22;7074;51.508;7.018;2022-10-16T05:18:55;15.40;99.90
13998;DHT22;7074;51.508;7.018;2022-10-16T05:21:23;15.30;99.90
13998;DHT22;7074;51.508;7.018;2022-10-16T05:23:53;15.40;99.90
13998;DHT22;7074;51.508;7.018;2022-10-16T05:26:20;15.40;99.90
13998;DHT22;7074;51.508;7.018;2022-10-16T05:28:48;15.40;99.90
13998;DHT22;7074;51.508;7.018;2022-10-16T05:31:16;15.30;99.90
13998;DHT22;7074;51.508;7.018;2022-10-16T05:33:43;15.40;99.90
13998;DHT22;7074;51.508;7.018;2022-10-16T05:36:11;15.40;99.90
13998;DHT22;7074;51.508;7.018;2022-10-16T05:38:38;15.40;99.90
13998;DHT22;7074;51.508;7.018;2022-10-16T05:41:07;15.30;99.90
13998;DHT22;7074;51.508;7.018;2022-10-16T05:43:34;15.30;99.90
13998;DHT22;7074;51.508;7.018;2022-10-16T05:46:04;15.30;99.90
13998;DHT22;7074;51.508;7.018;2022-10-16T05:48:32;15.30;99.90
13998;DHT22;7074;51.508;7.018;2022-10-16T05:51:01;15.40;99.90
13998;DHT22;7074;51.508;7.018;2022-10-16T05:53:31;15.40;99.90
13998;DHT22;7074;51.508;7.018;2022-10-16T05:56:00;15.40;99.90
13998;DHT22;7074;51.508;7.018;2022-10-16T05:58:31;15.40;99.90
13998;DHT22;7074;51.508;7.018;2022-10-16T06:01:00;15.40;99.90
13998;DHT22;7074;51.508;7.018;2022-10-16T06:03:28;15.40;99.90
13998;DHT22;7074;51.508;7.018;2022-10-16T06:05:55;15.40;99.90
13998;DHT22;7074;51.508;7.018;2022-10-16T06:08:23;15.40;99.90
13998;DHT22;7074;51.508;7.018;2022-10-16T06:11:00;15.40;99.90
13998;DHT22;7074;51.508;7.018;2022-10-16T06:13:29;15.30;99.90
13998;DHT22;7074;51.508;7.018;2022-10-16T06:15:57;15.40;99.90
13998;DHT22;7074;51.508;7.018;2022-10-16T06:18:25;15.30;99.90
13998;DHT22;7074;51.508;7.018;2022-10-16T06:20:52;15.30;99.90
13998;DHT22;7074;51.508;7.018;2022-10-16T06:23:20;15.40;99.90
13998;DHT22;7074;51.508;7.018;2022-10-16T06:25:47;15.30;99.90
13998;DHT22;7074;51.508;7.018;2022-10-16T06:28:15;15.30;99.90
13998;DHT22;7074;51.508;7.018;2022-10-16T06:30:44;15.30;99.90
13998;DHT22;7074;51.508;7.018;2022-10-16T06:33:11;15.30;99.90
13998;DHT22;7074;51.508;7.018;2022-10-16T06:35:39;15.30;99.90
13998;DHT22;7074;51.508;7.018;2022-10-16T06:38:06;15.40;99.90
13998;DHT22;7074;51.508;7.018;2022-10-16T06:40:33;15.30;99.90
13998;DHT22;7074;51.508;7.018;2022-10-16T06:43:00;15.30;99.90
13998;DHT22;7074;51.508;7.018;2022-10-16T06:45:27;15.30;99.90
13998;DHT22;7074;51.508;7.018;2022-10-16T06:47:56;15.40;99.90
13998;DHT22;7074;51.508;7.018;2022-10-16T06:50:24;15.40;99.90
13998;DHT22;7074;51.508;7.018;2022-10-16T06:52:51;15.40;99.90
13998;DHT22;7074;51.508;7.018;2022-10-16T06:55:18;15.50;99.90
13998;DHT22;7074;51.508;7.018;2022-10-16T06:57:47;15.50;99.90
13998;DHT22;7074;51.508;7.018;2022-10-16T07:00:14;15.50;99.90
13998;DHT22;7074;51.508;7.018;2022-10-16T07:02:41;15.40;99.90
13998;DHT22;7074;51.508;7.018;2022-10-16T07:05:10;15.40;99.90
13998;DHT22;7074;51.508;7.018;2022-10-16T07:07:37;15.40;99.90
13998;DHT22;7074;51.508;7.018;2022-10-16T07:10:05;15.40;99.90
13998;DHT22;7074;51.508;7.018;2022-10-16T07:12:32;15.40;99.90
13998;DHT22;7074;51.508;7.018;2022-10-16T07:14:59;15.40;99.90
13998;DHT22;7074;51.508;7.018;2022-10-16T07:17:27;15.50;99.90
13998;DHT22;7074;51.508;7.018;2022-10-16T07:19:54;15.40;99.90
13998;DHT22;7074;51.508;7.018;2022-10-16T07:22:23;15.50;99.90
13998;DHT22;7074;51.508;7.018;2022-10-16T07:24:50;15.50;99.90
13998;DHT22;7074;51.508;7.018;2022-10-16T07:27:18;15.50;99.90
13998;DHT22;7074;51.508;7.018;2022-10-16T07:29:47;15.50;99.90
13998;DHT22;7074;51.508;7.018;2022-10-16T07:32:15;15.50;99.90
13998;DHT22;7074;51.508;7.018;2022-10-16T07:34:42;15.50;99.90
13998;DHT22;7074;51.508;7.018;2022-10-16T07:37:09;15.50;99.90
13998;DHT22;7074;51.508;7.018;2022-10-16T07:39:38;15.60;99.90
13998;DHT22;7074;51.508;7.018;2022-10-16T07:42:05;15.70;99.90
13998;DHT22;7074;51.508;7.018;2022-10-16T07:44:33;15.70;99.90
13998;DHT22;7074;51.508;7.018;2022-10-16T07:47:00;15.70;99.90
13998;DHT22;7074;51.508;7.018;2022-10-16T07:49:28;15.80;99.90
13998;DHT22;7074;51.508;7.018;2022-10-16T07:51:55;15.70;99.90
13998;DHT22;7074;51.508;7.018;2022-10-16T07:54:23;15.80;99.90
13998;DHT22;7074;51.508;7.018;2022-10-16T07:56:51;15.90;99.90
13998;DHT22;7074;51.508;7.018;2022-10-16T07:59:19;15.90;99.90
13998;DHT22;7074;51.508;7.018;2022-10-16T08:01:46;16.00;99.90
13998;DHT22;7074;51.508;7.018;2022-10-16T08:04:13;16.10;99.90
13998;DHT22;7074;51.508;7.018;2022-10-16T08:06:41;16.10;99.90
13998;DHT22;7074;51.508;7.018;2022-10-16T08:09:09;16.10;99.90
13998;DHT22;7074;51.508;7.018;2022-10-16T08:11:36;16.20;99.90
13998;DHT22;7074;51.508;7.018;2022-10-16T08:14:05;16.20;99.90
13998;DHT22;7074;51.508;7.018;2022-10-16T08:16:32;16.30;99.90
13998;DHT22;7074;51.508;7.018;2022-10-16T08:18:59;16.40;99.90
13998;DHT22;7074;51.508;7.018;2022-10-16T08:21:27;16.50;99.90
13998;DHT22;7074;51.508;7.018;2022-10-16T08:23:54;16.40;99.90
13998;DHT22;7074;51.508;7.018;2022-10-16T08:26:21;16.60;99.90
13998;DHT22;7074;51.508;7.018;2022-10-16T08:28:50;16.60;99.90
13998;DHT22;7074;51.508;7.018;2022-10-16T08:31:19;16.70;99.90
13998;DHT22;7074;51.508;7.018;2022-10-16T08:33:46;16.70;99.90
13998;DHT22;7074;51.508;7.018;2022-10-16T08:36:15;16.80;99.90
13998;DHT22;7074;51.508;7.018;2022-10-16T08:38:43;16.80;99.90
13998;DHT22;7074;51.508;7.018;2022-10-16T08:41:26;16.90;99.90
13998;DHT22;7074;51.508;7.018;2022-10-16T08:44:15;17.10;99.90
13998;DHT22;7074;51.508;7.018;2022-10-16T08:46:51;17.10;99.90
13998;DHT22;7074;51.508;7.018;2022-10-16T08:49:23;17.20;99.90
13998;DHT22;7074;51.508;7.018;2022-10-16T08:51:50;17.20;99.90
13998;DHT22;7074;51.508;7.018;2022-10-16T08:54:28;17.30;99.90
13998;DHT22;7074;51.508;7.018;2022-10-16T08:56:57;17.40;99.90
13998;DHT22;7074;51.508;7.018;2022-10-16T08:59:27;17.50;99.90
13998;DHT22;7074;51.508;7.018;2022-10-16T09:01:56;17.50;99.90
13998;DHT22;7074;51.508;7.018;2022-10-16T09:04:46;17.70;99.90
13998;DHT22;7074;51.508;7.018;2022-10-16T09:07:22;17.70;99.90
13998;DHT22;7074;51.508;7.018;2022-10-16T09:10:02;17.70;99.90
13998;DHT22;7074;51.508;7.018;2022-10-16T09:12:38;17.80;99.90
13998;DHT22;7074;51.508;7.018;2022-10-16T09:15:17;18.00;99.90
13998;DHT22;7074;51.508;7.018;2022-10-16T09:17:54;18.10;99.90
13998;DHT22;7074;51.508;7.018;2022-10-16T09:20:32;18.20;99.90
13998;DHT22;7074;51.508;7.018;2022-10-16T09:23:21;18.20;99.90
13998;DHT22;7074;51.508;7.018;2022-10-16T09:25:50;18.20;99.90
13998;DHT22;7074;51.508;7.018;2022-10-16T09:28:18;18.30;99.90
13998;DHT22;7074;51.508;7.018;2022-10-16T09:30:46;18.20;99.90
13998;DHT22;7074;51.508;7.018;2022-10-16T09:33:18;18.40;99.90
13998;DHT22;7074;51.508;7.018;2022-10-16T09:35:48;18.40;99.90
13998;DHT22;7074;51.508;7.018;2022-10-16T09:38:26;18.50;99.90
13998;DHT22;7074;51.508;7.018;2022-10-16T09:40:55;18.50;99.90
13998;DHT22;7074;51.508;7.018;2022-10-16T09:43:25;18.50;99.90
13998;DHT22;7074;51.508;7.018;2022-10-16T09:46:02;18.60;99.90
13998;DHT22;7074;51.508;7.018;2022-10-16T09:48:36;18.70;99.90
13998;DHT22;7074;51.508;7.018;2022-10-16T09:51:06;18.80;99.90
13998;DHT22;7074;51.508;7.018;2022-10-16T09:53:42;18.80;99.90
13998;DHT22;7074;51.508;7.018;2022-10-16T09:56:11;18.80;99.90
13998;DHT22;7074;51.508;7.018;2022-10-16T09:58:43;18.90;99.90
13998;DHT22;7074;51.508;7.018;2022-10-16T10:01:16;18.90;99.90
13998;DHT22;7074;51.508;7.018;2022-10-16T10:03:46;19.00;99.90
13998;DHT22;7074;51.508;7.018;2022-10-16T10:06:23;18.90;99.90
13998;DHT22;7074;51.508;7.018;2022-10-16T10:08:56;19.00;99.90
13998;DHT22;7074;51.508;7.018;2022-10-16T10:11:48;18.90;99.90
13998;DHT22;7074;51.508;7.018;2022-10-16T10:14:22;19.00;99.90
13998;DHT22;7074;51.508;7.018;2022-10-16T10:16:51;19.00;99.90
13998;DHT22;7074;51.508;7.018;2022-10-16T10:19:21;18.80;99.90
13998;DHT22;7074;51.508;7.018;2022-10-16T10:21:49;18.90;99.90
13998;DHT22;7074;51.508;7.018;2022-10-16T10:24:18;18.90;99.90
13998;DHT22;7074;51.508;7.018;2022-10-16T10:26:58;19.00;99.90
13998;DHT22;7074;51.508;7.018;2022-10-16T10:29:38;19.00;99.90
13998;DHT22;7074;51.508;7.018;2022-10-16T10:32:18;18.90;99.90
13998;DHT22;7074;51.508;7.018;2022-10-16T10:35:07;18.90;99.90
13998;DHT22;7074;51.508;7.018;2022-10-16T10:37:51;19.00;99.90
13998;DHT22;7074;51.508;7.018;2022-10-16T10:40:30;19.10;99.90
13998;DHT22;7074;51.508;7.018;2022-10-16T10:43:06;19.00;99.90
13998;DHT22;7074;51.508;7.018;2022-10-16T10:45:42;19.10;99.90
13998;DHT22;7074;51.508;7.018;2022-10-16T10:48:41;19.40;99.90
13998;DHT22;7074;51.508;7.018;2022-10-16T10:51:20;19.60;99.90
13998;DHT22;7074;51.508;7.018;2022-10-16T10:53:54;19.80;99.90
13998;DHT22;7074;51.508;7.018;2022-10-16T10:56:39;19.90;99.90
13998;DHT22;7074;51.508;7.018;2022-10-16T10:59:25;20.00;99.90
13998;DHT22;7074;51.508;7.018;2022-10-16T11:01:56;20.10;99.90
13998;DHT22;7074;51.508;7.018;2022-10-16T11:04:49;20.00;99.90
13998;DHT22;7074;51.508;7.018;2022-10-16T11:07:27;20.10;99.90
13998;DHT22;7074;51.508;7.018;2022-10-16T11:09:58;20.30;99.90
13998;DHT22;7074;51.508;7.018;2022-10-16T11:12:30;20.20;99.90
13998;DHT22;7074;51.508;7.018;2022-10-16T11:15:03;20.30;99.90
13998;DHT22;7074;51.508;7.018;2022-10-16T11:17:35;20.30;99.90
13998;DHT22;7074;51.508;7.018;2022-10-16T11:20:13;20.30;99.90
13998;DHT22;7074;51.508;7.018;2022-10-16T11:22:48;20.30;99.90
13998;DHT22;7074;51.508;7.018;2022-10-16T11:25:20;20.40;99.90
13998;DHT22;7074;51.508;7.018;2022-10-16T11:27:51;20.30;99.90
13998;DHT22;7074;51.508;7.018;2022-10-16T11:30:23;20.40;99.90
13998;DHT22;7074;51.508;7.018;2022-10-16T11:33:00;20.50;99.90
13998;DHT22;7074;51.508;7.018;2022-10-16T11:35:39;20.60;99.90
13998;DHT22;7074;51.508;7.018;2022-10-16T11:44:53;20.80;99.90
13998;DHT22;7074;51.508;7.018;2022-10-16T11:47:30;20.70;99.90
13998;DHT22;7074;51.508;7.018;2022-10-16T11:50:01;20.90;99.90
13998;DHT22;7074;51.508;7.018;2022-10-16T11:52:33;20.90;99.90
13998;DHT22;7074;51.508;7.018;2022-10-16T11:55:09;21.00;99.90
13998;DHT22;7074;51.508;7.018;2022-10-16T11:57:44;21.00;99.90
13998;DHT22;7074;51.508;7.018;2022-10-16T12:00:22;21.10;99.90
13998;DHT22;7074;51.508;7.018;2022-10-16T12:02:58;21.20;99.90
13998;DHT22;7074;51.508;7.018;2022-10-16T12:05:35;21.00;99.90
13998;DHT22;7074;51.508;7.018;2022-10-16T12:08:09;20.80;99.90
13998;DHT22;7074;51.508;7.018;2022-10-16T12:10:38;20.70;99.90
13998;DHT22;7074;51.508;7.018;2022-10-16T12:13:28;20.70;99.90
13998;DHT22;7074;51.508;7.018;2022-10-16T12:16:06;20.60;99.90
13998;DHT22;7074;51.508;7.018;2022-10-16T12:18:33;20.60;99.90
13998;DHT22;7074;51.508;7.018;2022-10-16T12:21:01;20.50;99.90
13998;DHT22;7074;51.508;7.018;2022-10-16T12:23:36;20.40;99.90
13998;DHT22;7074;51.508;7.018;2022-10-16T12:26:04;20.40;99.90
13998;DHT22;7074;51.508;7.018;2022-10-16T12:28:34;20.30;99.90
13998;DHT22;7074;51.508;7.018;2022-10-16T12:31:04;20.20;99.90
13998;DHT22;7074;51.508;7.018;2022-10-16T12:33:34;19.90;99.90
13998;DHT22;7074;51.508;7.018;2022-10-16T12:36:04;20.20;99.90
13998;DHT22;7074;51.508;7.018;2022-10-16T12:38:38;20.40;99.90
13998;DHT22;7074;51.508;7.018;2022-10-16T12:41:07;20.40;99.90
13998;DHT22;7074;51.508;7.018;2022-10-16T12:43:39;20.40;99.90
13998;DHT22;7074;51.508;7.018;2022-10-16T12:46:24;20.40;99.90
13998;DHT22;7074;51.508;7.018;2022-10-16T12:51:51;20.70;99.90
13998;DHT22;7074;51.508;7.018;2022-10-16T12:54:20;20.80;99.90
13998;DHT22;7074;51.508;7.018;2022-10-16T12:57:09;20.80;99.90
13998;DHT22;7074;51.508;7.018;2022-10-16T12:59:44;20.70;99.90
13998;DHT22;7074;51.508;7.018;2022-10-16T13:05:21;20.70;99.90
13998;DHT22;7074;51.508;7.018;2022-10-16T13:07:59;20.70;99.90
13998;DHT22;7074;51.508;7.018;2022-10-16T13:10:35;20.80;99.90
13998;DHT22;7074;51.508;7.018;2022-10-16T13:13:25;20.70;99.90
13998;DHT22;7074;51.508;7.018;2022-10-16T13:16:05;20.70;99.90
13998;DHT22;7074;51.508;7.018;2022-10-16T13:18:44;20.70;99.90
13998;DHT22;7074;51.508;7.018;2022-10-16T13:21:31;20.80;99.90
13998;DHT22;7074;51.508;7.018;2022-10-16T13:24:06;20.90;99.90
13998;DHT22;7074;51.508;7.018;2022-10-16T13:26:43;21.00;99.90
13998;DHT22;7074;51.508;7.018;2022-10-16T13:29:12;21.10;99.90
13998;DHT22;7074;51.508;7.018;2022-10-16T13:31:40;21.00;99.90
13998;DHT22;7074;51.508;7.018;2022-10-16T13:34:15;21.00;99.90
13998;DHT22;7074;51.508;7.018;2022-10-16T13:36:46;21.00;99.90
13998;DHT22;7074;51.508;7.018;2022-10-16T13:39:15;21.10;99.90
13998;DHT22;7074;51.508;7.018;2022-10-16T13:41:43;21.10;99.90
13998;DHT22;7074;51.508;7.018;2022-10-16T13:44:15;21.10;99.90
13998;DHT22;7074;51.508;7.018;2022-10-16T13:46:43;21.10;99.90
13998;DHT22;7074;51.508;7.018;2022-10-16T13:49:15;21.20;99.90
13998;DHT22;7074;51.508;7.018;2022-10-16T13:51:54;21.10;99.90
13998;DHT22;7074;51.508;7.018;2022-10-16T13:54:22;20.90;99.90
13998;DHT22;7074;51.508;7.018;2022-10-16T13:56:49;20.90;99.90
13998;DHT22;7074;51.508;7.018;2022-10-16T13:59:24;20.90;99.90
13998;DHT22;7074;51.508;7.018;2022-10-16T14:01:54;20.90;99.90
13998;DHT22;7074;51.508;7.018;2022-10-16T14:04:26;20.90;99.90
13998;DHT22;7074;51.508;7.018;2022-10-16T14:06:56;20.90;99.90
13998;DHT22;7074;51.508;7.018;2022-10-16T14:09:26;20.90;99.90
13998;DHT22;7074;51.508;7.018;2022-10-16T14:11:56;20.90;99.90
13998;DHT22;7074;51.508;7.018;2022-10-16T14:26:40;20.80;99.90
13998;DHT22;7074;51.508;7.018;2022-10-16T14:29:29;20.80;99.90
13998;DHT22;7074;51.508;7.018;2022-10-16T14:31:58;20.70;99.90
13998;DHT22;7074;51.508;7.018;2022-10-16T14:34:29;20.60;99.90
13998;DHT22;7074;51.508;7.018;2022-10-16T14:37:00;20.60;99.90
13998;DHT22;7074;51.508;7.018;2022-10-16T14:39:33;20.60;99.90
13998;DHT22;7074;51.508;7.018;2022-10-16T14:42:02;20.40;99.90
13998;DHT22;7074;51.508;7.018;2022-10-16T14:44:32;20.40;99.90
13998;DHT22;7074;51.508;7.018;2022-10-16T14:47:08;20.40;99.90
13998;DHT22;7074;51.508;7.018;2022-10-16T14:49:36;20.50;99.90
13998;DHT22;7074;51.508;7.018;2022-10-16T14:52:09;20.50;99.90
13998;DHT22;7074;51.508;7.018;2022-10-16T14:54:37;20.40;99.90
13998;DHT22;7074;51.508;7.018;2022-10-16T14:57:16;20.40;99.90
13998;DHT22;7074;51.508;7.018;2022-10-16T14:59:46;20.40;99.90
13998;DHT22;7074;51.508;7.018;2022-10-16T15:02:23;20.40;99.90
13998;DHT22;7074;51.508;7.018;2022-10-16T15:05:10;20.40;99.90
13998;DHT22;7074;51.508;7.018;2022-10-16T15:07:38;20.40;99.90
13998;DHT22;7074;51.508;7.018;2022-10-16T15:10:05;20.20;99.90
13998;DHT22;7074;51.508;7.018;2022-10-16T15:12:35;20.20;99.90
13998;DHT22;7074;51.508;7.018;2022-10-16T15:15:23;20.20;99.90
13998;DHT22;7074;51.508;7.018;2022-10-16T15:17:52;20.20;99.90
13998;DHT22;7074;51.508;7.018;2022-10-16T15:20:22;20.20;99.90
13998;DHT22;7074;51.508;7.018;2022-10-16T15:22:50;20.20;99.90
13998;DHT22;7074;51.508;7.018;2022-10-16T15:25:30;20.20;99.90
13998;DHT22;7074;51.508;7.018;2022-10-16T15:28:00;20.20;99.90
13998;DHT22;7074;51.508;7.018;2022-10-16T15:30:28;20.10;99.90
13998;DHT22;7074;51.508;7.018;2022-10-16T15:32:55;20.10;99.90
13998;DHT22;7074;51.508;7.018;2022-10-16T15:35:23;20.10;99.90
13998;DHT22;7074;51.508;7.018;2022-10-16T15:37:50;20.10;99.90
13998;DHT22;7074;51.508;7.018;2022-10-16T15:40:19;20.10;99.90
13998;DHT22;7074;51.508;7.018;2022-10-16T15:42:48;20.10;99.90
13998;DHT22;7074;51.508;7.018;2022-10-16T15:45:17;20.10;99.90
13998;DHT22;7074;51.508;7.018;2022-10-16T15:47:45;20.10;99.90
13998;DHT22;7074;51.508;7.018;2022-10-16T15:50:14;20.00;99.90
13998;DHT22;7074;51.508;7.018;2022-10-16T15:52:42;20.00;99.90
13998;DHT22;7074;51.508;7.018;2022-10-16T15:55:12;20.00;99.90
13998;DHT22;7074;51.508;7.018;2022-10-16T15:57:40;20.00;99.90
13998;DHT22;7074;51.508;7.018;2022-10-16T16:00:11;19.90;99.90
13998;DHT22;7074;51.508;7.018;2022-10-16T16:02:40;19.90;99.90
13998;DHT22;7074;51.508;7.018;2022-10-16T16:05:09;19.90;99.90
13998;DHT22;7074;51.508;7.018;2022-10-16T16:07:38;19.80;99.90
13998;DHT22;7074;51.508;7.018;2022-10-16T16:10:07;19.80;99.90
13998;DHT22;7074;51.508;7.018;2022-10-16T16:12:36;19.80;99.90
13998;DHT22;7074;51.508;7.018;2022-10-16T16:15:04;19.70;99.90
13998;DHT22;7074;51.508;7.018;2022-10-16T16:17:33;19.70;99.90
13998;DHT22;7074;51.508;7.018;2022-10-16T16:20:03;19.70;99.90
13998;DHT22;7074;51.508;7.018;2022-10-16T16:22:33;19.60;99.90
13998;DHT22;7074;51.508;7.018;2022-10-16T16:25:01;19.60;99.90
13998;DHT22;7074;51.508;7.018;2022-10-16T16:27:35;19.50;99.90
13998;DHT22;7074;51.508;7.018;2022-10-16T16:30:05;19.40;99.90
13998;DHT22;7074;51.508;7.018;2022-10-16T16:32:34;19.30;99.90
13998;DHT22;7074;51.508;7.018;2022-10-16T16:35:04;19.30;99.90
13998;DHT22;7074;51.508;7.018;2022-10-16T16:37:32;19.20;99.90